createdAt,value
2022-11-20T00:03:12.274Z,98196.61
2022-11-20T00:08:35.133Z,98190.91
2022-11-20T00:13:58.593Z,98184.23
2022-11-20T00:19:20.955Z,98186.42
2022-11-20T00:24:43.382Z,98188.82
2022-11-20T00:30:10.008Z,98191.05
2022-11-20T00:35:34.415Z,98187.63
2022-11-20T00:40:58.635Z,98185.75
2022-11-20T00:46:23.044Z,98190.52
2022-11-20T00:51:44.869Z,98183.16
2022-11-20T00:57:06.873Z,98182.36
2022-11-20T01:02:28.755Z,98174.15
2022-11-20T01:07:50.731Z,98172.77
2022-11-20T01:13:30.755Z,98164.66
2022-11-20T01:18:54.577Z,98156.28
2022-11-20T01:24:18.790Z,98161.96
2022-11-20T01:29:40.727Z,98161.91
2022-11-20T01:35:03.071Z,98157.48
2022-11-20T01:40:24.986Z,98149.17
2022-11-20T01:46:17.312Z,98138.69
2022-11-20T01:51:52.187Z,98128.30
2022-11-20T01:57:14.829Z,98127.38
2022-11-20T02:02:38.263Z,98126.26
2022-11-20T02:08:00.694Z,98128.04
2022-11-20T02:13:41.698Z,98130.45
2022-11-20T02:19:05.727Z,98135.41
2022-11-20T02:24:27.511Z,98140.55
2022-11-20T02:29:53.303Z,98146.84
2022-11-20T02:35:20.750Z,98149.34
2022-11-20T02:40:43.379Z,98155.02
2022-11-20T02:46:09.331Z,98157.55
2022-11-20T02:51:31.553Z,98158.95
2022-11-20T02:56:53.884Z,98161.11
2022-11-20T03:02:15.822Z,98157.70
2022-11-20T03:07:37.979Z,98158.93
2022-11-20T03:12:59.932Z,98157.52
2022-11-20T03:18:21.902Z,98153.12
2022-11-20T03:23:43.931Z,98151.88
2022-11-20T03:29:06.563Z,98152.89
2022-11-20T03:34:28.464Z,98155.77
2022-11-20T03:39:50.250Z,98153.26
2022-11-20T03:45:13.403Z,98148.99
2022-11-20T03:50:34.985Z,98146.07
2022-11-20T03:55:57.015Z,98142.94
2022-11-20T04:01:21.227Z,98145.45
2022-11-20T04:06:43.066Z,98145.98
2022-11-20T04:12:05.521Z,98155.82
2022-11-20T04:17:27.339Z,98155.88
2022-11-20T04:22:49.478Z,98153.54
2022-11-20T04:28:11.499Z,98153.39
2022-11-20T04:33:34.581Z,98139.97
2022-11-20T04:39:07.182Z,98129.41
2022-11-20T04:44:29.028Z,98118.30
2022-11-20T04:49:50.919Z,98113.23
2022-11-20T04:55:12.686Z,98108.67
2022-11-20T05:00:34.715Z,98106.44
2022-11-20T05:05:56.946Z,98097.13
2022-11-20T05:11:21.283Z,98090.23
2022-11-20T05:16:43.355Z,98083.71
2022-11-20T05:22:06.200Z,98083.95
2022-11-20T05:27:28.579Z,98089.24
2022-11-20T05:32:50.259Z,98088.02
2022-11-20T05:38:12.446Z,98084.30
2022-11-20T05:43:35.874Z,98084.24
2022-11-20T05:48:59.014Z,98083.20
2022-11-20T05:54:21.014Z,98084.48
2022-11-20T05:59:43.932Z,98079.27
2022-11-20T06:05:06.444Z,98075.41
2022-11-20T06:10:28.228Z,98075.10
2022-11-20T06:15:54.169Z,98081.37
2022-11-20T06:21:20.871Z,98088.48
2022-11-20T06:26:43.052Z,98082.93
2022-11-20T06:32:05.387Z,98086.46
2022-11-20T06:37:27.205Z,98080.44
2022-11-20T06:42:49.171Z,98075.23
2022-11-20T06:48:11.015Z,98074.00
2022-11-20T06:53:33.696Z,98077.50
2022-11-20T06:58:55.429Z,98069.31
2022-11-20T07:04:16.969Z,98068.02
2022-11-20T07:09:38.837Z,98060.50
2022-11-20T07:15:00.714Z,98060.66
2022-11-20T07:20:22.822Z,98061.18
2022-11-20T07:25:44.895Z,98055.79
2022-11-20T07:31:08.531Z,98050.66
2022-11-20T07:36:30.566Z,98054.53
2022-11-20T07:41:52.565Z,98051.52
2022-11-20T07:47:14.239Z,98050.19
2022-11-20T07:52:36.423Z,98045.98
2022-11-20T07:57:58.654Z,98047.64
2022-11-20T08:03:24.599Z,98045.91
2022-11-20T08:08:46.930Z,98048.85
2022-11-20T08:14:14.718Z,98049.84
2022-11-20T08:19:38.816Z,98057.31
2022-11-20T08:25:00.746Z,98063.66
2022-11-20T08:30:22.574Z,98066.17
2022-11-20T08:35:44.337Z,98065.80
2022-11-20T08:41:24.680Z,98071.16
2022-11-20T08:46:48.255Z,98069.18
2022-11-20T08:52:09.760Z,98070.14
2022-11-20T08:57:38.413Z,98071.27
2022-11-20T09:03:02.295Z,98064.94
2022-11-20T09:08:24.608Z,98071.59
2022-11-20T09:13:46.408Z,98068.84
2022-11-20T09:19:34.064Z,98067.34
2022-11-20T09:24:50.339Z,98071.16
2022-11-20T09:30:14.004Z,98059.52
2022-11-20T09:35:35.903Z,98049.98
2022-11-20T09:40:59.879Z,98037.54
2022-11-20T09:46:48.761Z,98038.61
2022-11-20T09:52:42.510Z,98033.02
2022-11-20T09:58:07.845Z,98026.45
2022-11-20T10:04:25.569Z,98022.39
2022-11-20T10:10:05.881Z,98013.24
2022-11-20T10:15:55.091Z,98010.79
2022-11-20T10:22:02.277Z,97999.37
2022-11-20T10:27:34.026Z,97996.27
2022-11-20T10:33:17.645Z,97997.54
2022-11-20T10:38:43.709Z,97985.73
2022-11-20T10:44:40.442Z,97975.81
2022-11-20T10:50:05.954Z,97959.44
2022-11-20T10:55:46.727Z,97957.44
2022-11-20T11:01:17.487Z,97955.96
2022-11-20T11:06:44.104Z,97955.92
2022-11-20T11:12:12.642Z,97945.24
2022-11-20T11:17:34.630Z,97947.80
2022-11-20T11:22:58.502Z,97951.77
2022-11-20T11:28:26.992Z,97953.54
2022-11-20T11:33:49.185Z,97950.17
2022-11-20T11:39:16.059Z,97945.96
2022-11-20T11:44:56.551Z,97930.79
2022-11-20T11:50:22.443Z,97925.95
2022-11-20T11:56:16.611Z,97922.60
2022-11-20T12:01:50.163Z,97922.71
2022-11-20T12:13:07.378Z,97914.83
2022-11-20T12:18:29.790Z,97914.06
2022-11-20T12:23:54.469Z,97907.62
2022-11-20T12:29:25.703Z,97897.13
2022-11-20T12:35:11.404Z,97882.59
2022-11-20T12:40:42.776Z,97871.27
2022-11-20T12:46:26.713Z,97861.45
2022-11-20T12:52:22.375Z,97860.42
2022-11-20T12:57:52.878Z,97860.89
2022-11-20T13:03:20.279Z,97853.21
2022-11-20T13:08:44.442Z,97853.24
2022-11-20T13:14:36.098Z,97855.70
2022-11-20T13:19:59.887Z,97846.87
2022-11-20T13:25:33.153Z,97842.60
2022-11-20T13:30:56.036Z,97839.10
2022-11-20T13:36:24.417Z,97839.35
2022-11-20T13:41:55.851Z,97838.70
2022-11-20T13:47:30.123Z,97832.67
2022-11-20T13:53:02.990Z,97825.81
2022-11-20T13:58:34.152Z,97818.81
2022-11-20T14:04:11.133Z,97814.73
2022-11-20T14:09:34.369Z,97820.54
2022-11-20T14:14:56.741Z,97815.84
2022-11-20T14:20:24.147Z,97812.59
2022-11-20T14:25:46.278Z,97813.79
2022-11-20T14:31:20.250Z,97802.33
2022-11-20T14:36:44.213Z,97807.15
2022-11-20T14:42:17.003Z,97805.95
2022-11-20T14:47:39.858Z,97800.45
2022-11-20T14:53:02.318Z,97804.52
2022-11-20T14:58:27.302Z,97793.06
2022-11-20T15:04:19.123Z,97786.64
2022-11-20T15:09:40.983Z,97782.88
2022-11-20T15:15:04.422Z,97778.86
2022-11-20T15:20:32.305Z,97776.00
2022-11-20T15:25:53.870Z,97765.11
2022-11-20T15:31:18.539Z,97764.29
2022-11-20T15:36:41.108Z,97770.20
2022-11-20T15:42:02.536Z,97769.25
2022-11-20T15:47:29.398Z,97763.67
2022-11-20T15:52:51.681Z,97762.02
2022-11-20T15:58:14.451Z,97761.16
2022-11-20T16:03:36.326Z,97759.48
2022-11-20T16:08:58.206Z,97753.53
2022-11-20T16:14:38.608Z,97758.55
2022-11-20T16:20:00.547Z,97757.77
2022-11-20T16:25:22.454Z,97765.78
2022-11-20T16:30:44.685Z,97768.61
2022-11-20T16:36:14.841Z,97764.94
2022-11-20T16:41:37.582Z,97762.69
2022-11-20T16:46:59.202Z,97749.83
2022-11-20T16:52:20.830Z,97747.96
2022-11-20T16:57:42.821Z,97758.38
2022-11-20T17:03:06.213Z,97768.84
2022-11-20T17:08:30.633Z,97778.88
2022-11-20T17:13:52.843Z,97780.45
2022-11-20T17:19:15.795Z,97773.52
2022-11-20T17:24:37.450Z,97763.51
2022-11-20T17:29:59.356Z,97754.91
2022-11-20T17:35:21.291Z,97748.58
2022-11-20T17:40:43.212Z,97741.15
2022-11-20T17:46:13.030Z,97739.30
2022-11-20T17:51:35.419Z,97731.83
2022-11-20T17:57:16.192Z,97730.52
2022-11-20T18:02:38.127Z,97709.77
2022-11-20T18:08:00.089Z,97709.36
2022-11-20T18:13:45.008Z,97721.63
2022-11-20T18:19:12.063Z,97722.06
2022-11-20T18:24:34.415Z,97731.88
2022-11-20T18:29:58.982Z,97730.45
2022-11-20T18:35:20.857Z,97732.00
2022-11-20T18:40:42.619Z,97728.08
2022-11-20T18:46:04.970Z,97725.29
2022-11-20T18:51:26.715Z,97727.23
2022-11-20T18:56:48.834Z,97731.00
2022-11-20T19:02:16.279Z,97731.11
2022-11-20T19:07:38.163Z,97726.70
2022-11-20T19:13:00.537Z,97722.90
2022-11-20T19:18:22.377Z,97720.53
2022-11-20T19:23:48.226Z,97723.54
2022-11-20T19:29:15.618Z,97723.45
2022-11-20T19:34:37.687Z,97723.43
2022-11-20T19:39:59.854Z,97724.45
2022-11-20T19:45:21.950Z,97728.55
2022-11-20T19:50:43.830Z,97729.64
2022-11-20T19:56:06.409Z,97729.96
2022-11-20T20:01:30.904Z,97721.81
2022-11-20T20:06:52.595Z,97712.41
2022-11-20T20:12:14.708Z,97711.25
2022-11-20T20:17:36.788Z,97713.23
2022-11-20T20:22:58.868Z,97718.73
2022-11-20T20:28:20.494Z,97721.52
2022-11-20T20:33:43.496Z,97713.27
2022-11-20T20:39:05.060Z,97714.00
2022-11-20T20:44:45.248Z,97712.46
2022-11-20T20:50:10.855Z,97710.43
2022-11-20T20:55:34.224Z,97715.36
2022-11-20T21:01:02.318Z,97715.94
2022-11-20T21:06:24.633Z,97718.77
2022-11-20T21:11:46.376Z,97717.73
2022-11-20T21:17:13.698Z,97715.26
2022-11-20T21:22:36.923Z,97723.79
2022-11-20T21:27:58.475Z,97727.79
2022-11-20T21:33:20.378Z,97729.48
2022-11-20T21:38:42.808Z,97734.94
2022-11-20T21:49:48.050Z,97733.59
2022-11-20T21:55:10.080Z,97727.09
2022-11-20T22:00:31.798Z,97725.59
2022-11-20T22:05:57.545Z,97722.45
2022-11-20T22:11:21.398Z,97721.77
2022-11-20T22:16:43.407Z,97723.84
2022-11-20T22:22:05.435Z,97737.57
2022-11-20T22:27:26.935Z,97744.54
2022-11-20T22:32:48.896Z,97738.94
2022-11-20T22:38:10.923Z,97738.09
2022-11-20T22:43:33.423Z,97745.92
2022-11-20T22:49:01.893Z,97752.72
2022-11-20T22:54:24.189Z,97744.96
2022-11-20T22:59:46.221Z,97742.61
2022-11-20T23:05:08.397Z,97746.58
2022-11-20T23:10:30.157Z,97743.04
2022-11-20T23:15:52.142Z,97745.42
2022-11-20T23:21:16.983Z,97745.41
2022-11-20T23:26:41.283Z,97749.09
2022-11-20T23:32:03.186Z,97748.38
2022-11-20T23:37:25.219Z,97748.60
2022-11-20T23:43:06.089Z,97750.79
2022-11-20T23:48:32.535Z,97749.14
2022-11-20T23:53:54.263Z,97751.61
2022-11-20T23:59:15.847Z,97747.83
